sensor_id;sensor_type;location;lat;lon;timestamp;temperature;humidity
21261;DHT22;10788;47.930;9.766;2022-12-10T00:01:50;0.80;99.90
21261;DHT22;10788;47.930;9.766;2022-12-10T00:04:16;0.80;99.90
21261;DHT22;10788;47.930;9.766;2022-12-10T00:06:42;0.70;99.90
21261;DHT22;10788;47.930;9.766;2022-12-10T00:09:12;0.70;99.90
21261;DHT22;10788;47.930;9.766;2022-12-10T00:11:39;0.80;99.90
21261;DHT22;10788;47.930;9.766;2022-12-10T00:14:05;0.70;99.90
21261;DHT22;10788;47.930;9.766;2022-12-10T00:16:32;0.80;99.90
21261;DHT22;10788;47.930;9.766;2022-12-10T00:18:59;0.70;99.90
21261;DHT22;10788;47.930;9.766;2022-12-10T00:21:27;0.70;99.90
21261;DHT22;10788;47.930;9.766;2022-12-10T00:23:53;0.80;99.90
21261;DHT22;10788;47.930;9.766;2022-12-10T00:26:22;0.70;99.90
21261;DHT22;10788;47.930;9.766;2022-12-10T00:28:49;0.70;99.90
21261;DHT22;10788;47.930;9.766;2022-12-10T00:31:26;0.70;99.90
21261;DHT22;10788;47.930;9.766;2022-12-10T00:33:54;0.70;99.90
21261;DHT22;10788;47.930;9.766;2022-12-10T00:36:26;0.70;99.90
21261;DHT22;10788;47.930;9.766;2022-12-10T00:38:52;0.70;99.90
21261;DHT22;10788;47.930;9.766;2022-12-10T00:41:18;0.70;99.90
21261;DHT22;10788;47.930;9.766;2022-12-10T00:43:44;0.70;99.90
21261;DHT22;10788;47.930;9.766;2022-12-10T00:46:11;0.70;99.90
21261;DHT22;10788;47.930;9.766;2022-12-10T00:48:36;0.70;99.90
21261;DHT22;10788;47.930;9.766;2022-12-10T00:51:03;0.70;99.90
21261;DHT22;10788;47.930;9.766;2022-12-10T00:53:30;0.70;99.90
21261;DHT22;10788;47.930;9.766;2022-12-10T00:55:57;0.70;99.90
21261;DHT22;10788;47.930;9.766;2022-12-10T00:58:23;0.70;99.90
21261;DHT22;10788;47.930;9.766;2022-12-10T01:00:49;0.70;99.90
21261;DHT22;10788;47.930;9.766;2022-12-10T01:03:15;0.70;99.90
21261;DHT22;10788;47.930;9.766;2022-12-10T01:05:40;0.60;99.90
21261;DHT22;10788;47.930;9.766;2022-12-10T01:08:06;0.60;99.90
21261;DHT22;10788;47.930;9.766;2022-12-10T01:10:32;0.60;99.90
21261;DHT22;10788;47.930;9.766;2022-12-10T01:12:57;0.60;99.90
21261;DHT22;10788;47.930;9.766;2022-12-10T01:15:23;0.50;99.90
21261;DHT22;10788;47.930;9.766;2022-12-10T01:17:49;0.40;99.90
21261;DHT22;10788;47.930;9.766;2022-12-10T01:20:14;0.50;99.90
21261;DHT22;10788;47.930;9.766;2022-12-10T01:22:40;0.40;99.90
21261;DHT22;10788;47.930;9.766;2022-12-10T01:25:06;0.50;99.90
21261;DHT22;10788;47.930;9.766;2022-12-10T01:27:31;0.50;99.90
21261;DHT22;10788;47.930;9.766;2022-12-10T01:29:57;0.50;99.90
21261;DHT22;10788;47.930;9.766;2022-12-10T01:32:22;0.50;99.90
21261;DHT22;10788;47.930;9.766;2022-12-10T01:34:48;0.50;99.90
21261;DHT22;10788;47.930;9.766;2022-12-10T01:37:14;0.40;99.90
21261;DHT22;10788;47.930;9.766;2022-12-10T01:39:39;0.50;99.90
21261;DHT22;10788;47.930;9.766;2022-12-10T01:42:05;0.50;99.90
21261;DHT22;10788;47.930;9.766;2022-12-10T01:46:58;0.50;99.90
21261;DHT22;10788;47.930;9.766;2022-12-10T01:49:31;0.50;99.90
21261;DHT22;10788;47.930;9.766;2022-12-10T01:51:57;0.50;99.90
21261;DHT22;10788;47.930;9.766;2022-12-10T01:54:32;0.50;99.90
21261;DHT22;10788;47.930;9.766;2022-12-10T01:57:10;0.50;99.90
21261;DHT22;10788;47.930;9.766;2022-12-10T01:59:37;0.50;99.90
21261;DHT22;10788;47.930;9.766;2022-12-10T02:04:59;0.50;99.90
21261;DHT22;10788;47.930;9.766;2022-12-10T02:10:31;0.50;99.90
21261;DHT22;10788;47.930;9.766;2022-12-10T02:13:12;0.50;99.90
21261;DHT22;10788;47.930;9.766;2022-12-10T02:15:52;0.50;99.90
21261;DHT22;10788;47.930;9.766;2022-12-10T02:18:19;0.50;99.90
21261;DHT22;10788;47.930;9.766;2022-12-10T02:20:57;0.50;99.90
21261;DHT22;10788;47.930;9.766;2022-12-10T02:23:46;0.50;99.90
21261;DHT22;10788;47.930;9.766;2022-12-10T02:26:24;0.40;99.90
21261;DHT22;10788;47.930;9.766;2022-12-10T02:31:49;0.40;99.90
21261;DHT22;10788;47.930;9.766;2022-12-10T02:34:17;0.40;99.90
21261;DHT22;10788;47.930;9.766;2022-12-10T02:36:46;0.40;99.90
21261;DHT22;10788;47.930;9.766;2022-12-10T02:39:16;0.40;99.90
21261;DHT22;10788;47.930;9.766;2022-12-10T02:41:52;0.40;99.90
21261;DHT22;10788;47.930;9.766;2022-12-10T02:44:20;0.40;99.90
21261;DHT22;10788;47.930;9.766;2022-12-10T02:46:49;0.40;99.90
21261;DHT22;10788;47.930;9.766;2022-12-10T02:49:16;0.30;99.90
21261;DHT22;10788;47.930;9.766;2022-12-10T02:51:43;0.40;99.90
21261;DHT22;10788;47.930;9.766;2022-12-10T02:57:13;0.40;99.90
21261;DHT22;10788;47.930;9.766;2022-12-10T03:10:27;0.30;99.90
21261;DHT22;10788;47.930;9.766;2022-12-10T03:12:59;0.30;99.90
21261;DHT22;10788;47.930;9.766;2022-12-10T03:15:27;0.40;99.90
21261;DHT22;10788;47.930;9.766;2022-12-10T03:17:54;0.40;99.90
21261;DHT22;10788;47.930;9.766;2022-12-10T03:20:22;0.40;99.90
21261;DHT22;10788;47.930;9.766;2022-12-10T03:22:49;0.40;99.90
21261;DHT22;10788;47.930;9.766;2022-12-10T03:25:19;0.40;99.90
21261;DHT22;10788;47.930;9.766;2022-12-10T03:27:48;0.40;99.90
21261;DHT22;10788;47.930;9.766;2022-12-10T03:30:15;0.40;99.90
21261;DHT22;10788;47.930;9.766;2022-12-10T03:32:41;0.40;99.90
21261;DHT22;10788;47.930;9.766;2022-12-10T03:35:09;0.40;99.90
21261;DHT22;10788;47.930;9.766;2022-12-10T03:37:35;0.40;99.90
21261;DHT22;10788;47.930;9.766;2022-12-10T03:40:02;0.40;99.90
21261;DHT22;10788;47.930;9.766;2022-12-10T03:42:28;0.40;99.90
21261;DHT22;10788;47.930;9.766;2022-12-10T03:44:54;0.40;99.90
21261;DHT22;10788;47.930;9.766;2022-12-10T03:47:20;0.40;99.90
21261;DHT22;10788;47.930;9.766;2022-12-10T03:49:46;0.30;99.90
21261;DHT22;10788;47.930;9.766;2022-12-10T03:52:12;0.40;99.90
21261;DHT22;10788;47.930;9.766;2022-12-10T03:54:38;0.40;99.90
21261;DHT22;10788;47.930;9.766;2022-12-10T03:57:03;0.40;99.90
21261;DHT22;10788;47.930;9.766;2022-12-10T03:59:29;0.30;99.90
21261;DHT22;10788;47.930;9.766;2022-12-10T04:01:55;0.30;99.90
21261;DHT22;10788;47.930;9.766;2022-12-10T04:04:20;0.30;99.90
21261;DHT22;10788;47.930;9.766;2022-12-10T04:06:46;0.30;99.90
21261;DHT22;10788;47.930;9.766;2022-12-10T04:09:14;0.30;99.90
21261;DHT22;10788;47.930;9.766;2022-12-10T04:11:39;0.30;99.90
21261;DHT22;10788;47.930;9.766;2022-12-10T04:14:05;0.30;99.90
21261;DHT22;10788;47.930;9.766;2022-12-10T04:16:49;0.20;99.90
21261;DHT22;10788;47.930;9.766;2022-12-10T04:19:17;0.20;99.90
21261;DHT22;10788;47.930;9.766;2022-12-10T04:21:44;0.20;99.90
21261;DHT22;10788;47.930;9.766;2022-12-10T04:24:31;0.20;99.90
21261;DHT22;10788;47.930;9.766;2022-12-10T04:27:25;0.30;99.90
21261;DHT22;10788;47.930;9.766;2022-12-10T04:29:52;0.20;99.90
21261;DHT22;10788;47.930;9.766;2022-12-10T04:32:18;0.20;99.90
21261;DHT22;10788;47.930;9.766;2022-12-10T04:34:44;0.30;99.90
21261;DHT22;10788;47.930;9.766;2022-12-10T04:37:10;0.30;99.90
21261;DHT22;10788;47.930;9.766;2022-12-10T04:39:37;0.30;99.90
21261;DHT22;10788;47.930;9.766;2022-12-10T04:42:03;0.30;99.90
21261;DHT22;10788;47.930;9.766;2022-12-10T04:44:29;0.30;99.90
21261;DHT22;10788;47.930;9.766;2022-12-10T04:46:55;0.20;99.90
21261;DHT22;10788;47.930;9.766;2022-12-10T04:49:21;0.20;99.90
21261;DHT22;10788;47.930;9.766;2022-12-10T04:51:47;0.10;99.90
21261;DHT22;10788;47.930;9.766;2022-12-10T04:54:13;0.10;99.90
21261;DHT22;10788;47.930;9.766;2022-12-10T04:56:39;0.10;99.90
21261;DHT22;10788;47.930;9.766;2022-12-10T04:59:06;0.20;99.90
21261;DHT22;10788;47.930;9.766;2022-12-10T05:01:32;0.20;99.90
21261;DHT22;10788;47.930;9.766;2022-12-10T05:04:00;0.20;99.90
21261;DHT22;10788;47.930;9.766;2022-12-10T05:06:26;0.30;99.90
21261;DHT22;10788;47.930;9.766;2022-12-10T05:08:52;0.20;99.90
21261;DHT22;10788;47.930;9.766;2022-12-10T05:11:20;0.20;99.90
21261;DHT22;10788;47.930;9.766;2022-12-10T05:13:47;0.20;99.90
21261;DHT22;10788;47.930;9.766;2022-12-10T05:16:15;0.20;99.90
21261;DHT22;10788;47.930;9.766;2022-12-10T05:18:41;0.20;99.90
21261;DHT22;10788;47.930;9.766;2022-12-10T05:21:10;0.30;99.90
21261;DHT22;10788;47.930;9.766;2022-12-10T05:23:37;0.30;99.90
21261;DHT22;10788;47.930;9.766;2022-12-10T05:26:06;0.30;99.90
21261;DHT22;10788;47.930;9.766;2022-12-10T05:28:35;0.30;99.90
21261;DHT22;10788;47.930;9.766;2022-12-10T05:31:01;0.30;99.90
21261;DHT22;10788;47.930;9.766;2022-12-10T05:33:27;0.30;99.90
21261;DHT22;10788;47.930;9.766;2022-12-10T05:35:56;0.30;99.90
21261;DHT22;10788;47.930;9.766;2022-12-10T05:38:22;0.30;99.90
21261;DHT22;10788;47.930;9.766;2022-12-10T05:40:47;0.30;99.90
21261;DHT22;10788;47.930;9.766;2022-12-10T05:43:13;0.30;99.90
21261;DHT22;10788;47.930;9.766;2022-12-10T05:45:39;0.30;99.90
21261;DHT22;10788;47.930;9.766;2022-12-10T05:48:05;0.40;99.90
21261;DHT22;10788;47.930;9.766;2022-12-10T05:50:32;0.40;99.90
21261;DHT22;10788;47.930;9.766;2022-12-10T05:52:58;0.40;99.90
21261;DHT22;10788;47.930;9.766;2022-12-10T05:55:23;0.40;99.90
21261;DHT22;10788;47.930;9.766;2022-12-10T05:57:50;0.40;99.90
21261;DHT22;10788;47.930;9.766;2022-12-10T06:00:15;0.40;99.90
21261;DHT22;10788;47.930;9.766;2022-12-10T06:02:41;0.40;99.90
21261;DHT22;10788;47.930;9.766;2022-12-10T06:05:07;0.40;99.90
21261;DHT22;10788;47.930;9.766;2022-12-10T06:07:33;0.40;99.90
21261;DHT22;10788;47.930;9.766;2022-12-10T06:09:58;0.40;99.90
21261;DHT22;10788;47.930;9.766;2022-12-10T06:12:24;0.40;99.90
21261;DHT22;10788;47.930;9.766;2022-12-10T06:14:49;0.40;99.90
21261;DHT22;10788;47.930;9.766;2022-12-10T06:17:15;0.50;99.90
21261;DHT22;10788;47.930;9.766;2022-12-10T06:19:40;0.50;99.90
21261;DHT22;10788;47.930;9.766;2022-12-10T06:22:06;0.50;99.90
21261;DHT22;10788;47.930;9.766;2022-12-10T06:24:31;0.50;99.90
21261;DHT22;10788;47.930;9.766;2022-12-10T06:26:57;0.50;99.90
21261;DHT22;10788;47.930;9.766;2022-12-10T06:29:23;0.50;99.90
21261;DHT22;10788;47.930;9.766;2022-12-10T06:31:48;0.40;99.90
21261;DHT22;10788;47.930;9.766;2022-12-10T06:34:14;0.40;99.90
21261;DHT22;10788;47.930;9.766;2022-12-10T06:36:39;0.40;99.90
21261;DHT22;10788;47.930;9.766;2022-12-10T06:39:05;0.40;99.90
21261;DHT22;10788;47.930;9.766;2022-12-10T06:41:31;0.40;99.90
21261;DHT22;10788;47.930;9.766;2022-12-10T06:43:56;0.40;99.90
21261;DHT22;10788;47.930;9.766;2022-12-10T06:46:24;0.40;99.90
21261;DHT22;10788;47.930;9.766;2022-12-10T06:48:51;0.40;99.90
21261;DHT22;10788;47.930;9.766;2022-12-10T06:51:17;0.40;99.90
21261;DHT22;10788;47.930;9.766;2022-12-10T06:53:43;0.40;99.90
21261;DHT22;10788;47.930;9.766;2022-12-10T06:56:14;0.40;99.90
21261;DHT22;10788;47.930;9.766;2022-12-10T06:58:40;0.40;99.90
21261;DHT22;10788;47.930;9.766;2022-12-10T07:01:10;0.40;99.90
21261;DHT22;10788;47.930;9.766;2022-12-10T07:03:37;0.40;99.90
21261;DHT22;10788;47.930;9.766;2022-12-10T07:06:04;0.40;99.90
21261;DHT22;10788;47.930;9.766;2022-12-10T07:08:30;0.40;99.90
21261;DHT22;10788;47.930;9.766;2022-12-10T07:10:56;0.40;99.90
21261;DHT22;10788;47.930;9.766;2022-12-10T07:13:22;0.40;99.90
21261;DHT22;10788;47.930;9.766;2022-12-10T07:15:48;0.40;99.90
21261;DHT22;10788;47.930;9.766;2022-12-10T07:18:13;0.40;99.90
21261;DHT22;10788;47.930;9.766;2022-12-10T07:20:39;0.40;99.90
21261;DHT22;10788;47.930;9.766;2022-12-10T07:23:05;0.40;99.90
21261;DHT22;10788;47.930;9.766;2022-12-10T07:25:31;0.40;99.90
21261;DHT22;10788;47.930;9.766;2022-12-10T07:27:57;0.40;99.90
21261;DHT22;10788;47.930;9.766;2022-12-10T07:30:22;0.40;99.90
21261;DHT22;10788;47.930;9.766;2022-12-10T07:32:48;0.40;99.90
21261;DHT22;10788;47.930;9.766;2022-12-10T07:35:14;0.40;99.90
21261;DHT22;10788;47.930;9.766;2022-12-10T07:37:39;0.30;99.90
21261;DHT22;10788;47.930;9.766;2022-12-10T07:40:05;0.40;99.90
21261;DHT22;10788;47.930;9.766;2022-12-10T07:42:31;0.40;99.90
21261;DHT22;10788;47.930;9.766;2022-12-10T07:44:56;0.40;99.90
21261;DHT22;10788;47.930;9.766;2022-12-10T07:47:22;0.40;99.90
21261;DHT22;10788;47.930;9.766;2022-12-10T07:49:47;0.40;99.90
21261;DHT22;10788;47.930;9.766;2022-12-10T07:52:13;0.30;99.90
21261;DHT22;10788;47.930;9.766;2022-12-10T07:54:39;0.40;99.90
21261;DHT22;10788;47.930;9.766;2022-12-10T07:57:04;0.40;99.90
21261;DHT22;10788;47.930;9.766;2022-12-10T07:59:30;0.40;99.90
21261;DHT22;10788;47.930;9.766;2022-12-10T08:01:56;0.40;99.90
21261;DHT22;10788;47.930;9.766;2022-12-10T08:04:22;0.40;99.90
21261;DHT22;10788;47.930;9.766;2022-12-10T08:06:48;0.30;99.90
21261;DHT22;10788;47.930;9.766;2022-12-10T08:09:14;0.30;99.90
21261;DHT22;10788;47.930;9.766;2022-12-10T08:11:39;0.30;99.90
21261;DHT22;10788;47.930;9.766;2022-12-10T08:14:05;0.30;99.90
21261;DHT22;10788;47.930;9.766;2022-12-10T08:16:31;0.40;99.90
21261;DHT22;10788;47.930;9.766;2022-12-10T08:18:58;0.40;99.90
21261;DHT22;10788;47.930;9.766;2022-12-10T08:21:27;0.40;99.90
21261;DHT22;10788;47.930;9.766;2022-12-10T08:23:53;0.30;99.90
21261;DHT22;10788;47.930;9.766;2022-12-10T08:26:21;0.30;99.90
21261;DHT22;10788;47.930;9.766;2022-12-10T08:28:48;0.30;99.90
21261;DHT22;10788;47.930;9.766;2022-12-10T08:31:15;0.20;99.90
21261;DHT22;10788;47.930;9.766;2022-12-10T08:33:42;0.30;99.90
21261;DHT22;10788;47.930;9.766;2022-12-10T08:36:09;0.20;99.90
21261;DHT22;10788;47.930;9.766;2022-12-10T08:38:35;0.20;99.90
21261;DHT22;10788;47.930;9.766;2022-12-10T08:41:12;0.20;99.90
21261;DHT22;10788;47.930;9.766;2022-12-10T08:43:40;0.20;99.90
21261;DHT22;10788;47.930;9.766;2022-12-10T08:46:07;0.20;99.90
21261;DHT22;10788;47.930;9.766;2022-12-10T08:48:34;0.20;99.90
21261;DHT22;10788;47.930;9.766;2022-12-10T08:51:00;0.30;99.90
21261;DHT22;10788;47.930;9.766;2022-12-10T08:53:26;0.30;99.90
21261;DHT22;10788;47.930;9.766;2022-12-10T08:55:52;0.30;99.90
21261;DHT22;10788;47.930;9.766;2022-12-10T08:58:19;0.30;99.90
21261;DHT22;10788;47.930;9.766;2022-12-10T09:00:45;0.30;99.90
21261;DHT22;10788;47.930;9.766;2022-12-10T09:03:11;0.30;99.90
21261;DHT22;10788;47.930;9.766;2022-12-10T09:05:37;0.30;99.90
21261;DHT22;10788;47.930;9.766;2022-12-10T09:08:03;0.30;99.90
21261;DHT22;10788;47.930;9.766;2022-12-10T09:10:28;0.30;99.90
21261;DHT22;10788;47.930;9.766;2022-12-10T09:12:54;0.30;99.90
21261;DHT22;10788;47.930;9.766;2022-12-10T09:15:20;0.30;99.90
21261;DHT22;10788;47.930;9.766;2022-12-10T09:17:45;0.30;99.90
21261;DHT22;10788;47.930;9.766;2022-12-10T09:20:11;0.30;99.90
21261;DHT22;10788;47.930;9.766;2022-12-10T09:22:37;0.30;99.90
21261;DHT22;10788;47.930;9.766;2022-12-10T09:25:07;0.40;99.90
21261;DHT22;10788;47.930;9.766;2022-12-10T09:27:34;0.30;99.90
21261;DHT22;10788;47.930;9.766;2022-12-10T09:29:59;0.30;99.90
21261;DHT22;10788;47.930;9.766;2022-12-10T09:32:25;0.30;99.90
21261;DHT22;10788;47.930;9.766;2022-12-10T09:34:51;0.30;99.90
21261;DHT22;10788;47.930;9.766;2022-12-10T09:37:17;0.30;99.90
21261;DHT22;10788;47.930;9.766;2022-12-10T09:39:43;0.30;99.90
21261;DHT22;10788;47.930;9.766;2022-12-10T09:47:18;0.20;99.90
21261;DHT22;10788;47.930;9.766;2022-12-10T09:52:40;0.10;99.90
21261;DHT22;10788;47.930;9.766;2022-12-10T09:55:34;0.20;99.90
21261;DHT22;10788;47.930;9.766;2022-12-10T09:58:03;0.20;99.90
21261;DHT22;10788;47.930;9.766;2022-12-10T10:00:34;0.20;99.90
21261;DHT22;10788;47.930;9.766;2022-12-10T10:03:02;0.20;99.90
21261;DHT22;10788;47.930;9.766;2022-12-10T10:05:30;0.20;99.90
21261;DHT22;10788;47.930;9.766;2022-12-10T10:08:05;0.20;99.90
21261;DHT22;10788;47.930;9.766;2022-12-10T10:10:34;0.30;99.90
21261;DHT22;10788;47.930;9.766;2022-12-10T10:13:16;0.40;99.90
21261;DHT22;10788;47.930;9.766;2022-12-10T10:15:44;0.30;99.90
21261;DHT22;10788;47.930;9.766;2022-12-10T10:21:00;0.30;99.90
21261;DHT22;10788;47.930;9.766;2022-12-10T10:23:27;0.40;99.90
21261;DHT22;10788;47.930;9.766;2022-12-10T10:25:53;0.30;99.90
21261;DHT22;10788;47.930;9.766;2022-12-10T10:28:21;0.30;99.90
21261;DHT22;10788;47.930;9.766;2022-12-10T10:30:48;0.30;99.90
21261;DHT22;10788;47.930;9.766;2022-12-10T10:33:15;0.30;99.90
21261;DHT22;10788;47.930;9.766;2022-12-10T10:35:48;0.30;99.90
21261;DHT22;10788;47.930;9.766;2022-12-10T10:38:22;0.40;99.90
21261;DHT22;10788;47.930;9.766;2022-12-10T10:41:11;0.40;99.90
21261;DHT22;10788;47.930;9.766;2022-12-10T10:43:42;0.30;99.90
21261;DHT22;10788;47.930;9.766;2022-12-10T10:46:16;0.30;99.90
21261;DHT22;10788;47.930;9.766;2022-12-10T10:48:42;0.30;99.90
21261;DHT22;10788;47.930;9.766;2022-12-10T10:51:17;0.30;99.90
21261;DHT22;10788;47.930;9.766;2022-12-10T10:53:48;0.30;99.90
21261;DHT22;10788;47.930;9.766;2022-12-10T10:56:27;0.20;99.90
21261;DHT22;10788;47.930;9.766;2022-12-10T10:59:04;0.20;99.90
21261;DHT22;10788;47.930;9.766;2022-12-10T11:01:58;0.10;99.90
21261;DHT22;10788;47.930;9.766;2022-12-10T11:04:37;0.10;99.90
21261;DHT22;10788;47.930;9.766;2022-12-10T11:07:21;0.10;99.90
21261;DHT22;10788;47.930;9.766;2022-12-10T11:09:48;0.10;99.90
21261;DHT22;10788;47.930;9.766;2022-12-10T11:12:40;0.10;99.90
21261;DHT22;10788;47.930;9.766;2022-12-10T11:17:52;0.10;99.90
21261;DHT22;10788;47.930;9.766;2022-12-10T11:20:23;0.20;99.90
21261;DHT22;10788;47.930;9.766;2022-12-10T11:22:57;0.20;99.90
21261;DHT22;10788;47.930;9.766;2022-12-10T11:31:00;0.20;99.90
21261;DHT22;10788;47.930;9.766;2022-12-10T11:42:00;0.10;99.90
21261;DHT22;10788;47.930;9.766;2022-12-10T11:58:32;0.10;99.90
21261;DHT22;10788;47.930;9.766;2022-12-10T12:14:53;0.30;99.90
21261;DHT22;10788;47.930;9.766;2022-12-10T12:17:38;0.30;99.90
21261;DHT22;10788;47.930;9.766;2022-12-10T12:25:58;0.20;99.90
21261;DHT22;10788;47.930;9.766;2022-12-10T12:28:32;0.20;99.90
21261;DHT22;10788;47.930;9.766;2022-12-10T12:31:05;0.20;99.90
21261;DHT22;10788;47.930;9.766;2022-12-10T12:33:43;0.20;99.90
21261;DHT22;10788;47.930;9.766;2022-12-10T12:36:22;0.20;99.90
21261;DHT22;10788;47.930;9.766;2022-12-10T12:44:45;0.10;99.90
21261;DHT22;10788;47.930;9.766;2022-12-10T12:50:05;0.10;99.90
21261;DHT22;10788;47.930;9.766;2022-12-10T12:52:43;0.10;99.90
21261;DHT22;10788;47.930;9.766;2022-12-10T12:55:21;0.10;99.90
21261;DHT22;10788;47.930;9.766;2022-12-10T12:57:54;0.10;99.90
21261;DHT22;10788;47.930;9.766;2022-12-10T13:00:22;0.10;99.90
21261;DHT22;10788;47.930;9.766;2022-12-10T13:03:17;0.10;99.90
21261;DHT22;10788;47.930;9.766;2022-12-10T13:05:44;0.20;99.90
21261;DHT22;10788;47.930;9.766;2022-12-10T13:15:53;0.30;99.90
21261;DHT22;10788;47.930;9.766;2022-12-10T13:18:34;0.30;99.90
21261;DHT22;10788;47.930;9.766;2022-12-10T13:21:27;0.20;99.90
21261;DHT22;10788;47.930;9.766;2022-12-10T13:24:07;0.20;99.90
21261;DHT22;10788;47.930;9.766;2022-12-10T13:26:33;0.20;99.90
21261;DHT22;10788;47.930;9.766;2022-12-10T13:29:19;0.20;99.90
21261;DHT22;10788;47.930;9.766;2022-12-10T13:32:04;0.10;99.90
21261;DHT22;10788;47.930;9.766;2022-12-10T13:34:39;0.00;99.90
21261;DHT22;10788;47.930;9.766;2022-12-10T13:37:10;0.00;99.90
21261;DHT22;10788;47.930;9.766;2022-12-10T13:42:38;0.00;99.90
21261;DHT22;10788;47.930;9.766;2022-12-10T13:56:05;-0.10;99.90
21261;DHT22;10788;47.930;9.766;2022-12-10T14:02:06;-0.10;99.90
21261;DHT22;10788;47.930;9.766;2022-12-10T14:06:37;-0.10;99.90
21261;DHT22;10788;47.930;9.766;2022-12-10T14:09:26;-0.10;99.90
21261;DHT22;10788;47.930;9.766;2022-12-10T14:11:59;-0.20;99.90
21261;DHT22;10788;47.930;9.766;2022-12-10T14:14:45;-0.20;99.90
21261;DHT22;10788;47.930;9.766;2022-12-10T14:17:15;-0.20;99.90
21261;DHT22;10788;47.930;9.766;2022-12-10T14:19:43;-0.20;99.90
21261;DHT22;10788;47.930;9.766;2022-12-10T14:22:16;-0.30;99.90
21261;DHT22;10788;47.930;9.766;2022-12-10T14:24:43;-0.20;99.90
21261;DHT22;10788;47.930;9.766;2022-12-10T14:27:24;-0.20;99.90
21261;DHT22;10788;47.930;9.766;2022-12-10T14:29:53;-0.20;99.90
21261;DHT22;10788;47.930;9.766;2022-12-10T14:32:33;-0.20;99.90
21261;DHT22;10788;47.930;9.766;2022-12-10T14:35:00;-0.20;99.90
21261;DHT22;10788;47.930;9.766;2022-12-10T14:37:29;-0.20;99.90
21261;DHT22;10788;47.930;9.766;2022-12-10T14:39:55;-0.20;99.90
21261;DHT22;10788;47.930;9.766;2022-12-10T14:42:22;-0.30;99.90
21261;DHT22;10788;47.930;9.766;2022-12-10T14:44:58;-0.30;99.90
21261;DHT22;10788;47.930;9.766;2022-12-10T14:47:26;-0.30;99.90
21261;DHT22;10788;47.930;9.766;2022-12-10T14:49:54;-0.40;99.90
21261;DHT22;10788;47.930;9.766;2022-12-10T14:52:23;-0.40;99.90
21261;DHT22;10788;47.930;9.766;2022-12-10T14:54:50;-0.50;99.90
21261;DHT22;10788;47.930;9.766;2022-12-10T14:57:26;-0.50;99.90
21261;DHT22;10788;47.930;9.766;2022-12-10T15:00:02;-0.50;99.90
21261;DHT22;10788;47.930;9.766;2022-12-10T15:02:35;-0.50;99.90
21261;DHT22;10788;47.930;9.766;2022-12-10T15:05:03;-0.50;99.90
21261;DHT22;10788;47.930;9.766;2022-12-10T15:07:34;-0.50;99.90
21261;DHT22;10788;47.930;9.766;2022-12-10T15:10:05;-0.50;99.90
21261;DHT22;10788;47.930;9.766;2022-12-10T15:12:42;-0.40;99.90
21261;DHT22;10788;47.930;9.766;2022-12-10T15:20:48;-0.40;99.90
21261;DHT22;10788;47.930;9.766;2022-12-10T15:25:46;-0.30;99.90
21261;DHT22;10788;47.930;9.766;2022-12-10T15:28:41;-0.30;99.90
21261;DHT22;10788;47.930;9.766;2022-12-10T15:33:47;-0.30;99.90
21261;DHT22;10788;47.930;9.766;2022-12-10T15:36:20;-0.30;99.90
21261;DHT22;10788;47.930;9.766;2022-12-10T15:38:48;-0.20;99.90
21261;DHT22;10788;47.930;9.766;2022-12-10T15:44:16;-0.20;99.90
21261;DHT22;10788;47.930;9.766;2022-12-10T15:49:40;-0.20;99.90
21261;DHT22;10788;47.930;9.766;2022-12-10T15:52:09;-0.10;99.90
21261;DHT22;10788;47.930;9.766;2022-12-10T15:54:39;-0.10;99.90
21261;DHT22;10788;47.930;9.766;2022-12-10T15:57:29;-0.10;99.90
21261;DHT22;10788;47.930;9.766;2022-12-10T15:59:59;-0.20;99.90
21261;DHT22;10788;47.930;9.766;2022-12-10T16:02:40;-0.20;99.90
21261;DHT22;10788;47.930;9.766;2022-12-10T16:05:14;-0.20;99.90
21261;DHT22;10788;47.930;9.766;2022-12-10T16:07:41;-0.20;99.90
21261;DHT22;10788;47.930;9.766;2022-12-10T16:10:08;-0.20;99.90
21261;DHT22;10788;47.930;9.766;2022-12-10T16:12:36;-0.20;99.90
21261;DHT22;10788;47.930;9.766;2022-12-10T16:15:03;-0.20;99.90
21261;DHT22;10788;47.930;9.766;2022-12-10T16:17:29;-0.20;99.90
21261;DHT22;10788;47.930;9.766;2022-12-10T16:20:23;-0.20;99.90
21261;DHT22;10788;47.930;9.766;2022-12-10T16:22:50;-0.20;99.90
21261;DHT22;10788;47.930;9.766;2022-12-10T16:25:16;-0.20;99.90
21261;DHT22;10788;47.930;9.766;2022-12-10T16:27:42;-0.20;99.90
21261;DHT22;10788;47.930;9.766;2022-12-10T16:32:46;-0.20;99.90
21261;DHT22;10788;47.930;9.766;2022-12-10T16:35:12;-0.30;99.90
21261;DHT22;10788;47.930;9.766;2022-12-10T16:37:44;-0.30;99.90
21261;DHT22;10788;47.930;9.766;2022-12-10T16:40:14;-0.30;99.90
21261;DHT22;10788;47.930;9.766;2022-12-10T16:42:41;-0.30;99.90
21261;DHT22;10788;47.930;9.766;2022-12-10T16:45:21;-0.40;99.90
21261;DHT22;10788;47.930;9.766;2022-12-10T16:47:48;-0.40;99.90
21261;DHT22;10788;47.930;9.766;2022-12-10T16:50:14;-0.50;99.90
21261;DHT22;10788;47.930;9.766;2022-12-10T16:52:40;-0.50;99.90
21261;DHT22;10788;47.930;9.766;2022-12-10T16:55:11;-0.50;99.90
21261;DHT22;10788;47.930;9.766;2022-12-10T16:57:36;-0.50;99.90
21261;DHT22;10788;47.930;9.766;2022-12-10T17:00:05;-0.40;99.90
21261;DHT22;10788;47.930;9.766;2022-12-10T17:02:31;-0.40;99.90
21261;DHT22;10788;47.930;9.766;2022-12-10T17:04:57;-0.40;99.90
21261;DHT22;10788;47.930;9.766;2022-12-10T17:07:22;-0.50;99.90
21261;DHT22;10788;47.930;9.766;2022-12-10T17:09:48;-0.50;99.90
21261;DHT22;10788;47.930;9.766;2022-12-10T17:12:14;-0.50;99.90
21261;DHT22;10788;47.930;9.766;2022-12-10T17:14:42;-0.50;99.90
21261;DHT22;10788;47.930;9.766;2022-12-10T17:17:12;-0.60;99.90
21261;DHT22;10788;47.930;9.766;2022-12-10T17:19:38;-0.60;99.90
21261;DHT22;10788;47.930;9.766;2022-12-10T17:22:08;-0.60;99.90
21261;DHT22;10788;47.930;9.766;2022-12-10T17:24:35;-0.60;99.90
21261;DHT22;10788;47.930;9.766;2022-12-10T17:27:07;-0.60;99.90
21261;DHT22;10788;47.930;9.766;2022-12-10T17:29:41;-0.60;99.90
21261;DHT22;10788;47.930;9.766;2022-12-10T17:32:12;-0.60;99.90
21261;DHT22;10788;47.930;9.766;2022-12-10T17:34:38;-0.50;99.90
21261;DHT22;10788;47.930;9.766;2022-12-10T17:37:12;-0.50;99.90
21261;DHT22;10788;47.930;9.766;2022-12-10T17:39:38;-0.50;99.90
21261;DHT22;10788;47.930;9.766;2022-12-10T17:42:04;-0.50;99.90
21261;DHT22;10788;47.930;9.766;2022-12-10T17:44:33;-0.60;99.90
21261;DHT22;10788;47.930;9.766;2022-12-10T17:46:58;-0.60;99.90
21261;DHT22;10788;47.930;9.766;2022-12-10T17:49:24;-0.60;99.90
21261;DHT22;10788;47.930;9.766;2022-12-10T17:51:49;-0.60;99.90
21261;DHT22;10788;47.930;9.766;2022-12-10T17:54:15;-0.60;99.90
21261;DHT22;10788;47.930;9.766;2022-12-10T17:56:42;-0.60;99.90
21261;DHT22;10788;47.930;9.766;2022-12-10T17:59:11;-0.60;99.90
21261;DHT22;10788;47.930;9.766;2022-12-10T18:01:38;-0.50;99.90
21261;DHT22;10788;47.930;9.766;2022-12-10T18:04:04;-0.50;99.90
21261;DHT22;10788;47.930;9.766;2022-12-10T18:06:30;-0.50;99.90
21261;DHT22;10788;47.930;9.766;2022-12-10T18:08:59;-0.50;99.90
21261;DHT22;10788;47.930;9.766;2022-12-10T18:11:36;-0.50;99.90
21261;DHT22;10788;47.930;9.766;2022-12-10T18:14:02;-0.60;99.90
21261;DHT22;10788;47.930;9.766;2022-12-10T18:16:33;-0.50;99.90